Tongo Airport

Jump to: basic info | weather | comments

Related pages: nearby airports | nearby navaids | notams | map

Basic information (top)

Codes: GFTO
Location: lon 8.217000, lat -11.067000, elev 750 ft / 229 m msl
Status: small_airport

Weather (top)

Current conditions for Roberts International Airport 126nm (234km) SSE (rec'd 2015/02/01 14:30Z):

GLRB 011430Z 23009KT 9999 SCT024 33/24 Q1009 NOSIG

Airport forecast for Roberts International Airport 126nm (234km) SSE (rec'd 2015/02/01 12:51Z):

TAF GLRB 011000Z 0112/0218 23011KT 9000 SCT016 
      TEMPO 0113/0115 20010KT 9999 BKN018 
      BECMG 0118/0120 23004KT 9000 
      TEMPO 0121/0201 00000KT 8000 SCT015

Latest comments (top)

No comments yet for Tongo Airport

More... (top)

See also NOTAMs and nearby airports and navaids, or visit the Tongo Airport page at the main OurAirports website..